createdAt,value
2023-05-29T04:41:53.306Z,17.24
2023-05-29T04:44:22.046Z,17.40
2023-05-29T04:46:53.466Z,17.55
2023-05-29T04:49:21.625Z,17.71
2023-05-29T04:51:57.109Z,17.88
2023-05-29T04:54:25.383Z,18.03
2023-05-29T04:56:56.148Z,18.14
2023-05-29T04:59:27.286Z,18.22
2023-05-29T05:01:55.284Z,18.31
2023-05-29T05:04:22.871Z,18.41
2023-05-29T05:06:51.003Z,18.48
2023-05-29T05:09:18.575Z,18.56
2023-05-29T05:11:46.918Z,18.67
2023-05-29T05:14:14.588Z,18.75
2023-05-29T05:16:42.603Z,18.80
2023-05-29T05:19:11.402Z,18.88
2023-05-29T05:21:46.051Z,18.96
2023-05-29T05:24:14.132Z,19.04
2023-05-29T05:26:42.247Z,19.12
2023-05-29T05:29:12.675Z,19.20
2023-05-29T05:31:45.026Z,19.26
2023-05-29T05:34:22.338Z,19.31
2023-05-29T05:37:01.777Z,19.37
2023-05-29T05:39:41.039Z,19.44
2023-05-29T05:42:09.134Z,19.53
2023-05-29T05:44:56.567Z,19.64
2023-05-29T05:48:23.549Z,19.75
2023-05-29T05:51:40.163Z,19.85
2023-05-29T05:55:43.875Z,19.91
2023-05-29T05:59:19.663Z,19.98
2023-05-29T06:02:40.335Z,20.03
2023-05-29T06:05:35.463Z,20.14
2023-05-29T06:08:47.470Z,20.27
2023-05-29T06:11:40.596Z,20.38
2023-05-29T06:14:08.745Z,20.38
2023-05-29T06:16:37.928Z,20.39
2023-05-29T06:19:42.689Z,20.39
2023-05-29T06:30:27.975Z,20.51
2023-05-29T06:34:07.929Z,20.59
2023-05-29T06:40:48.075Z,20.56
2023-05-29T06:48:00.999Z,20.43
2023-05-29T06:54:29.606Z,20.37
2023-05-29T06:58:18.818Z,20.40
2023-05-29T07:01:10.758Z,20.59
2023-05-29T07:04:46.004Z,20.69
2023-05-29T07:07:38.564Z,20.85
2023-05-29T07:10:07.427Z,20.95
2023-05-29T07:12:35.116Z,21.05
2023-05-29T07:15:02.784Z,21.12
2023-05-29T07:17:30.556Z,21.23
2023-05-29T07:20:13.285Z,21.34
2023-05-29T07:22:54.638Z,21.44
2023-05-29T07:25:29.117Z,21.53
2023-05-29T07:27:59.454Z,21.67
2023-05-29T07:30:33.244Z,21.77
2023-05-29T07:33:02.057Z,21.82
2023-05-29T07:35:34.330Z,21.86
2023-05-29T07:38:02.532Z,21.88
2023-05-29T07:40:30.117Z,21.89
2023-05-29T07:43:02.194Z,22.03
2023-05-29T07:45:40.631Z,22.21
2023-05-29T07:48:10.154Z,22.29
2023-05-29T07:50:38.942Z,22.40
2023-05-29T07:53:07.084Z,22.44
2023-05-29T07:55:36.608Z,22.33
2023-05-29T07:58:04.452Z,22.18
2023-05-29T08:00:32.251Z,22.03
2023-05-29T08:03:00.279Z,21.98
2023-05-29T08:05:46.720Z,22.00
2023-05-29T08:09:11.704Z,21.97
2023-05-29T08:16:47.671Z,22.37
2023-05-29T08:24:56.963Z,22.73
2023-05-29T08:28:22.506Z,22.57
2023-05-29T08:31:14.875Z,22.38
2023-05-29T08:33:42.507Z,22.31
2023-05-29T08:36:10.062Z,22.30
2023-05-29T08:38:37.734Z,22.34
2023-05-29T08:41:05.565Z,22.34
2023-05-29T08:43:33.252Z,22.39
2023-05-29T08:46:03.976Z,22.40
2023-05-29T08:48:32.300Z,22.41
2023-05-29T08:51:00.165Z,22.44
2023-05-29T08:53:27.795Z,22.55
2023-05-29T08:55:56.938Z,22.72
2023-05-29T08:58:24.937Z,22.90
2023-05-29T09:00:52.722Z,23.06
2023-05-29T09:03:22.004Z,23.22
2023-05-29T09:05:50.324Z,23.38
2023-05-29T09:08:18.349Z,23.53
2023-05-29T09:10:46.733Z,23.67
2023-05-29T09:13:15.122Z,23.76
2023-05-29T09:16:03.232Z,23.79
2023-05-29T09:18:32.296Z,23.82
2023-05-29T09:21:02.798Z,23.88
2023-05-29T09:23:30.939Z,23.96
2023-05-29T09:25:58.546Z,24.05
2023-05-29T09:28:28.172Z,24.19
2023-05-29T09:30:56.053Z,24.32
2023-05-29T09:33:23.995Z,24.47
2023-05-29T09:35:51.622Z,24.66
2023-05-29T09:38:33.622Z,24.89
2023-05-29T09:41:07.848Z,25.09
2023-05-29T09:43:37.848Z,25.18
2023-05-29T09:46:08.286Z,25.21
2023-05-29T09:48:35.938Z,25.18
2023-05-29T09:51:03.769Z,25.12
2023-05-29T09:56:22.147Z,24.83
2023-05-29T09:58:50.105Z,24.72
2023-05-29T10:01:18.289Z,24.68
2023-05-29T10:03:47.325Z,24.78
2023-05-29T10:06:17.900Z,24.89
2023-05-29T10:08:56.190Z,24.92
2023-05-29T10:11:26.347Z,24.88
2023-05-29T10:13:54.396Z,24.85
2023-05-29T10:16:22.893Z,24.82
2023-05-29T10:18:57.460Z,24.72
2023-05-29T10:21:29.002Z,24.54
2023-05-29T10:23:57.298Z,24.33
2023-05-29T10:26:29.926Z,24.16
2023-05-29T10:29:06.915Z,24.00
2023-05-29T10:32:03.295Z,23.92
2023-05-29T10:34:48.166Z,24.00
2023-05-29T10:37:41.643Z,24.07
2023-05-29T10:40:14.078Z,24.10
2023-05-29T10:42:42.912Z,24.13
2023-05-29T10:45:13.166Z,24.17
2023-05-29T10:47:40.890Z,24.09
2023-05-29T10:50:09.753Z,24.02
2023-05-29T10:52:37.368Z,24.03
2023-05-29T10:55:05.832Z,24.03
2023-05-29T10:57:36.883Z,24.01
2023-05-29T11:00:13.933Z,24.07
2023-05-29T11:02:42.125Z,24.27
2023-05-29T11:05:23.693Z,24.44
2023-05-29T11:08:02.183Z,24.60
2023-05-29T11:10:48.545Z,24.80
2023-05-29T11:13:38.348Z,25.04
2023-05-29T11:16:35.233Z,25.31
2023-05-29T11:19:07.955Z,25.48
2023-05-29T11:21:41.553Z,25.59
2023-05-29T11:24:09.166Z,25.67
2023-05-29T11:26:38.698Z,25.72
2023-05-29T11:29:12.177Z,25.67
2023-05-29T11:31:42.642Z,25.52
2023-05-29T11:34:11.680Z,25.33
2023-05-29T11:36:39.452Z,25.18
2023-05-29T11:39:07.529Z,25.11
2023-05-29T11:41:35.159Z,25.05
2023-05-29T11:44:04.525Z,24.99
2023-05-29T11:46:33.609Z,24.96
2023-05-29T11:49:01.576Z,24.92
2023-05-29T11:51:29.460Z,24.81
2023-05-29T11:54:00.050Z,24.68
2023-05-29T11:56:31.372Z,24.60
2023-05-29T11:59:01.463Z,24.54
2023-05-29T12:01:29.975Z,24.47
2023-05-29T12:03:57.806Z,24.39
2023-05-29T12:06:35.909Z,24.32
2023-05-29T12:09:05.298Z,24.29
2023-05-29T12:11:33.219Z,24.25
2023-05-29T12:14:01.149Z,24.22
2023-05-29T12:16:33.110Z,24.22
2023-05-29T12:19:01.151Z,24.24
2023-05-29T12:21:29.052Z,24.22
2023-05-29T12:24:13.357Z,24.23
2023-05-29T12:26:43.397Z,24.33
2023-05-29T12:29:11.265Z,24.44
2023-05-29T12:31:40.437Z,24.53
2023-05-29T12:34:13.511Z,24.57
2023-05-29T12:36:42.397Z,24.65
2023-05-29T12:39:10.481Z,24.80
2023-05-29T12:41:38.933Z,24.97
2023-05-29T12:44:07.514Z,25.20
2023-05-29T12:46:40.451Z,25.33
